ADDS METAR Data INFO
IDs: Format: Raw Decoded Include TAF

Data at: 0805 UTC 24 May 2018

KJWY 240755Z AUTO 00000KT 10SM CLR 21/21 A3006 RMK AO2 T02050205
KJWY 240735Z AUTO 17003KT 10SM CLR 21/21 A3006 RMK AO2 T02070206
KJWY 240715Z AUTO 17003KT 10SM CLR 21/21 A3006 RMK AO2 T02080205
KJWY 240655Z AUTO 17003KT 10SM CLR 21/21 A3007 RMK AO2 T02100206
KJWY 240635Z AUTO 16003KT 10SM CLR 21/21 A3008 RMK AO2 T02130207
KJWY 240615Z AUTO 17004KT 10SM CLR 22/21 A3009 RMK AO2 T02150208
KJWY 240555Z AUTO 00000KT 10SM CLR 22/20 A3009 RMK AO2 T02150204 10303 20215 403180198
KJWY 240535Z AUTO 00000KT 10SM CLR 22/20 A3008 RMK AO2 T02200201
KJWY 240515Z AUTO 00000KT 10SM CLR 23/20 A3008 RMK AO2 T02250201
KJWY 240455Z AUTO 15004KT 10SM CLR 23/20 A3008 RMK AO2 T02290200
KJWY 240435Z AUTO 00000KT 10SM CLR 23/20 A3008 RMK AO2 T02300200
KJWY 240415Z AUTO 14003KT 10SM CLR 23/20 A3007 RMK AO2 T02290200
KJWY 240355Z AUTO 15003KT 10SM CLR 23/20 A3006 RMK AO2 T02320200
KJWY 240335Z AUTO 16003KT 10SM CLR 24/20 A3005 RMK AO2 T02360201
KJWY 240315Z AUTO 16004KT 10SM CLR 24/20 A3004 RMK AO2 T02400201
KJWY 240255Z AUTO 16003KT 10SM CLR 25/20 A3003 RMK AO2 T02450202
KJWY 240235Z AUTO 15003KT 10SM CLR 25/20 A3003 RMK AO2 T02500202
KJWY 240215Z AUTO 16005KT 10SM CLR 26/20 A3002 RMK AO2 T02570202
KJWY 240155Z AUTO 15007G14KT 10SM CLR 27/20 A3001 RMK AO2 T02710200
KJWY 240135Z AUTO 13003KT 10SM CLR 27/20 A3000 RMK AO2 T02740200
KJWY 240115Z AUTO 13003KT 10SM CLR 28/20 A3000 RMK AO2 T02810200
KJWY 240055Z AUTO 13003KT 10SM CLR 29/20 A2999 RMK AO2 T02880199
KJWY 240035Z AUTO 12004KT 10SM CLR 29/20 A2999 RMK AO2 T02910199
KJWY 240015Z AUTO 14006KT 10SM SCT050 30/20 A2998 RMK AO2 T03000196
KJWY 232355Z AUTO 14006KT 10SM SCT050 30/20 A2998 RMK AO2 T03030197 10318 20288
KJWY 232335Z AUTO 15006KT 10SM SCT050 31/19 A2999 RMK AO2 T03070192
KJWY 232315Z AUTO 12004KT 10SM SCT050 SCT065 31/20 A3000 RMK AO2 T03100197
KJWY 232255Z AUTO 14005KT 10SM SCT050 BKN065 31/20 A3000 RMK AO2 T03110196
KJWY 232235Z AUTO 16005KT 10SM BKN050 BKN065 31/20 A3000 RMK AO2 T03140196
KJWY 232215Z AUTO 13004KT 10SM SCT050 31/19 A3000 RMK AO2 T03100193
KJWY 232155Z AUTO 18006KT 10SM BKN050 BKN075 BKN085 32/20 A3000 RMK AO2 T03160196
KJWY 232135Z AUTO 15003KT 10SM SCT050 BKN075 BKN085 32/20 A3001 RMK AO2 T03170195
KJWY 232115Z AUTO 17003KT 10SM SCT075 SCT100 31/19 A3002 RMK AO2 T03140194
KJWY 232055Z AUTO 15006KT 10SM CLR 31/20 A3002 RMK AO2 T03130197
KJWY 232035Z AUTO 16007KT 10SM CLR 30/20 A3003 RMK AO2 T02990195
KJWY 232015Z AUTO 18006KT 10SM CLR 31/19 A3003 RMK AO2 T03100193
KJWY 231955Z AUTO 16007KT 10SM SCT045 SCT055 31/20 A3003 RMK AO2 T03100203
KJWY 231935Z AUTO 15006KT 10SM SCT045 31/20 A3004 RMK AO2 T03060202
KJWY 231915Z AUTO 15009KT 10SM SCT044 31/20 A3005 RMK AO2 T03060204
KJWY 231855Z AUTO 16007KT 10SM SCT041 30/20 A3005 RMK AO2 T03020204
KJWY 231835Z AUTO 16006KT 10SM SCT042 SCT055 30/21 A3006 RMK AO2 T02990207
KJWY 231815Z AUTO 15006KT 10SM SCT038 SCT044 SCT055 29/21 A3007 RMK AO2 T02910205
KJWY 231755Z AUTO 17007KT 10SM SCT038 29/21 A3007 RMK AO2 T02870205 10295 20200
KJWY 231735Z AUTO 14004KT 10SM SCT036 29/21 A3008 RMK AO2 T02900205
KJWY 231715Z AUTO 15005KT 10SM SCT034 29/20 A3009 RMK AO2 T02860204
KJWY 231655Z AUTO 14005KT 10SM SCT031 28/20 A3009 RMK AO2 T02830204
KJWY 231635Z AUTO 15007KT 10SM SCT031 29/21 A3010 RMK AO2 T02850207
KJWY 231615Z AUTO 16005KT 10SM SCT029 28/21 A3010 RMK AO2 T02760209
KJWY 231555Z AUTO 15006KT 10SM SCT024 27/21 A3010 RMK AO2 T02720208
KJWY 231535Z AUTO 00000KT 10SM SCT022 27/21 A3009 RMK AO2 T02710213
KJWY 231515Z AUTO 17005KT 10SM SCT020 26/21 A3009 RMK AO2 T02640214
KJWY 231455Z AUTO 20004KT 10SM SCT016 26/21 A3009 RMK AO2 T02600214
KJWY 231435Z AUTO 21006KT 10SM SCT016 26/22 A3009 RMK AO2 T02560223
KJWY 231415Z AUTO 19006KT 10SM CLR 25/23 A3008 RMK AO2 T02500225
KJWY 231355Z AUTO 22006KT 10SM CLR 24/22 A3008 RMK AO2 T02410224
KJWY 231335Z AUTO 19004KT 10SM CLR 23/22 A3007 RMK AO2 T02290223
KJWY 231315Z AUTO 18003KT 10SM CLR 22/22 A3007 RMK AO2 T02210219
KJWY 231255Z AUTO 15004KT 7SM CLR 22/22 A3006 RMK AO2 T02150215
KJWY 231235Z AUTO 00000KT 5SM BR CLR 21/21 A3006 RMK AO2 T02060206
KJWY 231215Z AUTO 00000KT 3SM BR CLR 20/20 A3005 RMK AO2 T02020202
KJWY 231155Z AUTO 00000KT 2 1/2SM BR CLR 20/20 A3004 RMK AO2 T02000200 10222 20198
KJWY 231135Z AUTO 00000KT 3SM BR CLR 20/20 A3003 RMK AO2 T01980198
KJWY 231115Z AUTO 00000KT 5SM BR CLR 20/20 A3003 RMK AO2 T01990199
KJWY 231055Z AUTO 00000KT 5SM BR CLR 20/20 A3002 RMK AO2 T02030203
KJWY 231035Z AUTO 00000KT 7SM CLR 20/20 A3001 RMK AO2 T02040204
KJWY 231015Z AUTO 00000KT 7SM CLR 21/21 A3000 RMK AO2 T02070207
KJWY 230955Z AUTO 00000KT 7SM CLR 21/21 A3000 RMK AO2 T02070207
KJWY 230935Z AUTO 00000KT 7SM CLR 21/21 A3000 RMK AO2 T02070207
KJWY 230915Z AUTO 00000KT 7SM CLR 21/21 A3000 RMK AO2 T02090209
KJWY 230855Z AUTO 00000KT 10SM CLR 21/21 A2999 RMK AO2 T02100210
KJWY 230835Z AUTO 00000KT 10SM CLR 21/21 A2999 RMK AO2 T02100210
KJWY 230815Z AUTO 00000KT 7SM CLR 21/21 A3000 RMK AO2 T02070207
KJWY 230755Z AUTO 00000KT 10SM CLR 21/21 A3000 RMK AO2 T02130213
KJWY 230735Z AUTO 00000KT 10SM CLR 21/21 A3000 RMK AO2 T02130213
KJWY 230715Z AUTO 00000KT 10SM CLR 21/21 A3001 RMK AO2 T02130212
KJWY 230655Z AUTO 00000KT 10SM CLR 21/21 A3001 RMK AO2 T02120212
KJWY 230635Z AUTO 00000KT 10SM CLR 22/21 A3001 RMK AO2 T02190212
KJWY 230615Z AUTO 00000KT 10SM CLR 22/21 A3001 RMK AO2 T02200205
KJWY 230555Z AUTO 00000KT 10SM CLR 22/21 A3001 RMK AO2 T02220205 10287 20221 403100182
KJWY 230535Z AUTO 00000KT 10SM CLR 22/21 A3001 RMK AO2 T02220205
KJWY 230515Z AUTO 00000KT 10SM CLR 23/20 A3001 RMK AO2 T02250204
KJWY 230455Z AUTO 14003KT 10SM CLR 23/20 A3001 RMK AO2 T02260203
KJWY 230435Z AUTO 00000KT 10SM CLR 23/20 A3000 RMK AO2 T02270204
KJWY 230415Z AUTO 00000KT 10SM CLR 23/20 A3000 RMK AO2 T02260203
KJWY 230355Z AUTO 00000KT 10SM CLR 22/21 A3000 RMK AO2 T02220205
KJWY 230335Z AUTO 00000KT 10SM CLR 23/21 A3000 RMK AO2 T02310205
KJWY 230315Z AUTO 00000KT 10SM CLR 23/20 A2999 RMK AO2 T02320203
KJWY 230300Z AUTO 00000KT 10SM CLR 24/21 A2998 RMK AO2 T02400205
KJWY 230235Z AUTO 00000KT 10SM CLR 24/21 A2998 RMK AO2 T02430205
KJWY 230215Z AUTO 10003KT 10SM CLR 25/21 A2998 RMK AO2 T02460206
KJWY 230155Z AUTO 10003KT 10SM CLR 25/21 A2997 RMK AO2 T02490209
KJWY 230135Z AUTO 00000KT 10SM CLR 26/21 A2997 RMK AO2 T02570208
KJWY 230115Z AUTO 12003KT 10SM CLR 27/21 A2996 RMK AO2 T02650208
KJWY 230055Z AUTO 11003KT 10SM CLR 27/21 A2995 RMK AO2 T02720212
KJWY 230035Z AUTO 13003KT 10SM CLR 28/21 A2995 RMK AO2 T02760211
KJWY 230015Z AUTO 13004KT 10SM CLR 28/21 A2995 RMK AO2 T02830207
KJWY 222355Z AUTO 14004KT 10SM CLR 29/21 A2994 RMK AO2 T02860208 10310 20271
KJWY 222335Z AUTO 13004KT 10SM SCT045 29/21 A2995 RMK AO2 T02870206
KJWY 222315Z AUTO 11004KT 10SM SCT045 30/21 A2994 RMK AO2 T02970208
KJWY 222255Z AUTO 18007KT 10SM CLR 30/20 A2995 RMK AO2 T03010195
KJWY 222235Z AUTO 17007KT 10SM CLR 30/19 A2995 RMK AO2 T03020191
KJWY 222215Z AUTO 17006KT 10SM CLR 30/19 A2995 RMK AO2 T03040188
KJWY 222155Z AUTO 18005KT 10SM SCT049 31/19 A2995 RMK AO2 T03090187
KJWY 222135Z AUTO 15005KT 10SM CLR 30/19 A2995 RMK AO2 T02990187
KJWY 222115Z AUTO 15006KT 10SM SCT046 SCT060 30/19 A2996 RMK AO2 T03040194
KJWY 222055Z AUTO 15005KT 10SM SCT044 SCT060 30/20 A2997 RMK AO2 T02990203
KJWY 222035Z AUTO 19008KT 10SM SCT040 30/19 A2997 RMK AO2 T03000194
KJWY 222015Z AUTO 18008KT 10SM SCT038 SCT048 SCT055 30/20 A2998 RMK AO2 T02950203